Templeton, IN (47986)

1:04 AM EST on January 28, 2015 (GMT -0500)
Oxford | Change Station
CLOSE
Current Station
Personal Weather Station
Location: Oxford, IN
Elevation: 732 ft
Nearby Weather Stations

Elev 732 ft 40.52 °N, 87.24 °W | Updated 13 minutes ago

Clear
Clear
17.2 °F
Feels Like 17 °F
N
0.0
Wind Variable Wind from North

Today
High -- | Low -- °F
--% Chance of Precip.
Yesterday
High -- | Low -- °F
Precip. -- in
8:02 AM 6:01 PM
First Quarter, 61% visible
Pressure 30.30 in
Visibility 10.0 miles
Clouds Clear
Windchill 17 °F
Dew Point 12 °F
Humidity 80%
Rainfall 0.00 in
Snow Depth Not available.
UV 0 out of 12
Pollen .10 out of 12
Air Quality Not available.
Flu Activity Not available.
METAR KLAF 280554Z AUTO 26004KT 10SM CLR M08/M10 A3027 RMK AO2 SLP260 T10831100 11044 21094 53008 TSNO

More Conditions Fewer Conditions

Pressure 30.30 in
Visibility 10.0 miles
Clouds Clear
Windchill 17 °F
Dew Point 12 °F
Humidity 80%
Rainfall 0.00 in
Snow Depth Not available.
UV 0 out of 12
Pollen .10 out of 12
Air Quality Not available.
Flu Activity Not available.
METAR KLAF 280554Z AUTO 26004KT 10SM CLR M08/M10 A3027 RMK AO2 SLP260 T10831100 11044 21094 53008 TSNO

More Conditions Fewer Conditions

10-Day Weather Forecast

Almanac

Astronomy

Jan. 28, 2015 Rise Set
Actual Time
Civil Twilight
Nautical Twilight
Astronomical Twilight
Moon
Length of Visible Light
Length of Day
Tomorrow will be .
, % of the Moon is Illuminated

Today's Extremes

State Highs State Lows

Community

WunderPhotos

Upload Photos

1,791,109 photos uploaded!

WunderBlogs® & News

Nearby

Air Quality

  Air Quality AQ Index Pollutant
Not available.

Snow Depth

Station Depth Elevation

Earthquake Activity

City Distance Mag. Time & Date
Minimum magnitude displayed is 2.5.

Coastal Water Temperatures

Place Temperature

Nearby Weather Stations